createdAt,value
2022-10-01T00:01:05.079Z,99895.72
2022-10-01T00:03:38.427Z,99907.88
2022-10-01T00:06:14.006Z,99912.34
2022-10-01T00:08:45.861Z,99926.44
2022-10-01T00:11:19.299Z,99926.44
2022-10-01T00:13:50.417Z,99937.06
2022-10-01T00:16:23.275Z,99935.25
2022-10-01T00:18:53.850Z,99922.56
2022-10-01T00:21:29.301Z,99911.25
2022-10-01T00:24:01.313Z,99908.34
2022-10-01T00:26:35.073Z,99905.00
2022-10-01T00:29:07.941Z,99890.75
2022-10-01T00:31:38.572Z,99869.28
2022-10-01T00:34:09.396Z,99888.53
2022-10-01T00:36:45.234Z,99882.94
2022-10-01T00:39:15.918Z,99869.69
2022-10-01T00:41:46.730Z,99850.56
2022-10-01T00:44:37.261Z,99836.16
2022-10-01T00:47:21.520Z,99844.66
2022-10-01T00:49:55.410Z,99843.69
2022-10-01T00:52:34.880Z,99839.06
2022-10-01T00:55:12.033Z,99836.56
2022-10-01T00:57:43.748Z,99829.28
2022-10-01T01:00:16.560Z,99830.13
2022-10-01T01:02:47.283Z,99811.69
2022-10-01T01:05:17.599Z,99805.56
2022-10-01T01:07:53.122Z,99800.41
2022-10-01T01:10:33.357Z,99807.09
2022-10-01T01:13:14.302Z,99794.81
2022-10-01T01:15:50.767Z,99788.50
2022-10-01T01:18:25.997Z,99789.19
2022-10-01T01:21:14.965Z,99800.19
2022-10-01T01:24:23.389Z,99795.59
2022-10-01T01:27:06.992Z,99792.59
2022-10-01T01:29:45.132Z,99785.47
2022-10-01T01:32:22.464Z,99781.00
2022-10-01T01:34:55.474Z,99781.97
2022-10-01T01:37:32.064Z,99759.88
2022-10-01T01:40:05.506Z,99774.19
2022-10-01T01:42:40.341Z,99775.03
2022-10-01T01:45:18.775Z,99778.34
2022-10-01T01:47:49.576Z,99768.72
2022-10-01T01:50:20.806Z,99758.28
2022-10-01T01:52:51.716Z,99754.78
2022-10-01T01:55:22.803Z,99753.28
2022-10-01T01:57:53.374Z,99759.72
2022-10-01T02:00:26.625Z,99776.84
2022-10-01T02:02:59.629Z,99781.19
2022-10-01T02:05:33.482Z,99803.91
2022-10-01T02:08:28.121Z,99857.25
2022-10-01T02:11:21.671Z,99899.59
2022-10-01T02:14:04.964Z,99891.72
2022-10-01T02:16:51.054Z,99818.34
2022-10-01T02:19:28.206Z,99765.41
2022-10-01T02:22:03.325Z,99768.44
2022-10-01T02:24:42.341Z,99765.25
2022-10-01T02:27:16.683Z,99769.88
2022-10-01T02:29:48.711Z,99795.75
2022-10-01T02:32:22.476Z,99802.03
2022-10-01T02:34:53.627Z,99804.16
2022-10-01T02:37:28.371Z,99809.78
2022-10-01T02:40:00.825Z,99800.75
2022-10-01T02:42:33.066Z,99811.59
2022-10-01T02:45:06.181Z,99797.34
2022-10-01T02:47:44.610Z,99805.47
2022-10-01T02:50:15.925Z,99813.41
2022-10-01T02:52:50.836Z,99824.19
2022-10-01T02:55:23.260Z,99831.31
2022-10-01T02:57:53.670Z,99834.81
2022-10-01T03:00:24.438Z,99835.50
2022-10-01T03:02:57.404Z,99837.16
2022-10-01T03:05:27.578Z,99826.16
2022-10-01T03:07:57.698Z,99827.38
2022-10-01T03:10:29.295Z,99816.75
2022-10-01T03:13:01.812Z,99832.84
2022-10-01T03:15:32.087Z,99853.25
2022-10-01T03:18:05.109Z,99895.91
2022-10-01T03:20:35.292Z,99921.31
2022-10-01T03:23:05.429Z,99911.38
2022-10-01T03:25:36.517Z,99880.88
2022-10-01T03:28:06.800Z,99816.22
2022-10-01T03:30:36.957Z,99837.72
2022-10-01T03:33:09.689Z,99809.66
2022-10-01T03:35:39.875Z,99804.00
2022-10-01T03:38:10.253Z,99816.06
2022-10-01T03:40:40.376Z,99826.16
2022-10-01T03:43:10.525Z,99828.66
2022-10-01T03:45:40.707Z,99841.50
2022-10-01T03:48:13.750Z,99826.84
2022-10-01T03:50:43.987Z,99835.50
2022-10-01T03:53:14.134Z,99826.69
2022-10-01T03:55:44.330Z,99826.69
2022-10-01T03:58:14.453Z,99824.19
2022-10-01T04:00:47.205Z,99827.31
2022-10-01T04:03:20.806Z,99840.56
2022-10-01T04:05:51.162Z,99833.22
2022-10-01T04:08:24.426Z,99843.22
2022-10-01T04:10:54.778Z,99848.00
2022-10-01T04:13:24.945Z,99839.88
2022-10-01T04:15:55.073Z,99843.22
2022-10-01T04:18:27.861Z,99840.44
2022-10-01T04:20:58.036Z,99850.22
2022-10-01T04:23:31.886Z,99848.53
2022-10-01T04:26:03.798Z,99855.81
2022-10-01T04:28:35.259Z,99856.66
2022-10-01T04:31:18.012Z,99855.97
2022-10-01T04:33:51.351Z,99854.16
2022-10-01T04:36:21.511Z,99867.03
2022-10-01T04:38:57.994Z,99857.94
2022-10-01T04:41:31.661Z,99839.34
2022-10-01T04:44:02.494Z,99863.09
2022-10-01T04:46:32.909Z,99871.47
2022-10-01T04:49:05.801Z,99864.47
2022-10-01T04:51:36.329Z,99853.63
2022-10-01T04:54:06.800Z,99852.94
2022-10-01T04:56:36.933Z,99857.09
2022-10-01T04:59:07.089Z,99884.50
2022-10-01T05:01:37.879Z,99913.41
2022-10-01T05:04:11.578Z,99903.47
2022-10-01T05:06:41.950Z,99886.00
2022-10-01T05:09:12.150Z,99856.97
2022-10-01T05:11:42.313Z,99854.31
2022-10-01T05:14:15.411Z,99859.31
2022-10-01T05:16:45.701Z,99863.50
2022-10-01T05:19:18.538Z,99869.63
2022-10-01T05:21:48.695Z,99871.31
2022-10-01T05:24:18.938Z,99845.22
2022-10-01T05:26:49.103Z,99837.94
2022-10-01T05:29:19.463Z,99856.34
2022-10-01T05:31:50.343Z,99852.56
2022-10-01T05:34:23.242Z,99854.25
2022-10-01T05:36:53.424Z,99842.25
2022-10-01T05:39:23.547Z,99834.97
2022-10-01T05:41:55.599Z,99832.16
2022-10-01T05:44:26.194Z,99825.34
2022-10-01T05:46:56.829Z,99830.50
2022-10-01T05:49:29.553Z,99830.34
2022-10-01T05:52:01.131Z,99832.84
2022-10-01T05:54:36.294Z,99825.72
2022-10-01T05:57:08.080Z,99815.94
2022-10-01T05:59:38.695Z,99819.81
2022-10-01T06:02:12.865Z,99831.91
2022-10-01T06:04:45.900Z,99826.28
2022-10-01T06:07:16.230Z,99822.66
2022-10-01T06:09:46.952Z,99830.31
2022-10-01T06:12:19.788Z,99832.81
2022-10-01T06:14:50.221Z,99838.28
2022-10-01T06:17:20.448Z,99831.00
2022-10-01T06:19:54.361Z,99816.72
2022-10-01T06:22:24.441Z,99826.38
2022-10-01T06:24:56.668Z,99840.34
2022-10-01T06:27:26.975Z,99842.69
2022-10-01T06:29:57.226Z,99838.75
2022-10-01T06:32:29.604Z,99840.06
2022-10-01T06:35:04.622Z,99843.41
2022-10-01T06:37:34.754Z,99854.88
2022-10-01T06:40:04.950Z,99851.06
2022-10-01T06:42:36.055Z,99841.75
2022-10-01T06:45:06.715Z,99841.25
2022-10-01T06:47:38.034Z,99847.88
2022-10-01T06:50:11.960Z,99843.41
2022-10-01T06:52:55.078Z,99838.47
2022-10-01T06:55:29.191Z,99840.81
2022-10-01T06:58:00.632Z,99843.47
2022-10-01T07:00:32.526Z,99843.03
2022-10-01T07:03:06.586Z,99840.44
2022-10-01T07:05:39.643Z,99835.13
2022-10-01T07:08:10.824Z,99822.06
2022-10-01T07:10:41.065Z,99818.34
2022-10-01T07:13:12.281Z,99803.59
2022-10-01T07:15:43.343Z,99795.97
2022-10-01T07:18:14.669Z,99796.66
2022-10-01T07:20:50.045Z,99803.66
2022-10-01T07:23:22.152Z,99799.72
2022-10-01T07:25:52.396Z,99800.09
2022-10-01T07:28:26.211Z,99792.81
2022-10-01T07:31:03.820Z,99798.78
2022-10-01T07:33:33.923Z,99784.50
2022-10-01T07:36:09.009Z,99786.50
2022-10-01T07:38:39.300Z,99797.69
2022-10-01T07:41:09.438Z,99793.19
2022-10-01T07:43:41.636Z,99803.50
2022-10-01T07:46:11.756Z,99797.16
2022-10-01T07:48:42.284Z,99801.16
2022-10-01T07:51:15.183Z,99801.97
2022-10-01T07:53:45.948Z,99798.16
2022-10-01T07:56:16.149Z,99793.66
2022-10-01T07:58:46.427Z,99801.16
2022-10-01T08:01:17.369Z,99803.66
2022-10-01T08:03:47.582Z,99804.03
2022-10-01T08:06:24.686Z,99793.56
2022-10-01T08:08:55.807Z,99792.19
2022-10-01T08:11:26.035Z,99802.88
2022-10-01T08:13:57.349Z,99803.19
2022-10-01T08:16:33.644Z,99808.19
2022-10-01T08:19:04.181Z,99815.50
2022-10-01T08:21:38.215Z,99822.66
2022-10-01T08:24:08.924Z,99823.84
2022-10-01T08:26:39.342Z,99821.16
2022-10-01T08:29:11.630Z,99818.34
2022-10-01T08:31:45.192Z,99813.84
2022-10-01T08:34:15.357Z,99821.16
2022-10-01T08:36:53.896Z,99819.50
2022-10-01T08:39:24.025Z,99816.88
2022-10-01T08:42:01.318Z,99821.53
2022-10-01T08:44:37.601Z,99817.88
2022-10-01T08:47:14.923Z,99812.53
2022-10-01T08:49:49.253Z,99800.88
2022-10-01T08:52:26.266Z,99798.03
2022-10-01T08:55:00.961Z,99798.03
2022-10-01T08:57:35.312Z,99794.84
2022-10-01T09:00:08.678Z,99789.84
2022-10-01T09:02:42.422Z,99792.00
2022-10-01T09:05:24.938Z,99781.56
2022-10-01T09:08:08.305Z,99784.38
2022-10-01T09:10:47.166Z,99767.56
2022-10-01T09:13:49.378Z,99765.75
2022-10-01T09:16:27.642Z,99758.09
2022-10-01T09:19:09.282Z,99755.91
2022-10-01T09:21:50.776Z,99745.25
2022-10-01T09:24:40.810Z,99736.28
2022-10-01T09:27:16.708Z,99723.09
2022-10-01T09:29:54.597Z,99725.25
2022-10-01T09:32:29.372Z,99722.88
2022-10-01T09:35:04.686Z,99737.34
2022-10-01T09:37:44.476Z,99741.50
2022-10-01T09:40:24.398Z,99736.69
2022-10-01T09:42:54.951Z,99729.53
2022-10-01T09:45:27.211Z,99731.03
2022-10-01T09:48:05.381Z,99733.69
2022-10-01T09:50:41.847Z,99728.19
2022-10-01T09:53:20.717Z,99738.50
2022-10-01T09:55:57.262Z,99747.19
2022-10-01T09:58:30.818Z,99745.69
2022-10-01T10:01:01.194Z,99743.84
2022-10-01T10:03:35.376Z,99736.53
2022-10-01T10:06:08.302Z,99740.88
2022-10-01T10:08:41.477Z,99734.91
2022-10-01T10:11:23.413Z,99731.41
2022-10-01T10:13:55.881Z,99728.88
2022-10-01T10:16:30.205Z,99737.88
2022-10-01T10:19:03.036Z,99747.53
2022-10-01T10:21:35.982Z,99734.19
2022-10-01T10:24:08.443Z,99732.34
2022-10-01T10:26:43.526Z,99727.47
2022-10-01T10:29:30.609Z,99724.81
2022-10-01T10:32:02.280Z,99729.81
2022-10-01T10:34:35.690Z,99710.97
2022-10-01T10:37:09.390Z,99705.94
2022-10-01T10:39:42.113Z,99685.94
2022-10-01T10:42:19.020Z,99683.69
2022-10-01T10:44:51.792Z,99676.13
2022-10-01T10:47:24.536Z,99671.19
2022-10-01T10:49:57.136Z,99671.00
2022-10-01T10:52:33.436Z,99670.69
2022-10-01T10:55:21.827Z,99667.19
2022-10-01T10:57:57.712Z,99669.66
2022-10-01T11:00:29.932Z,99659.38
2022-10-01T11:03:04.246Z,99655.09
2022-10-01T11:05:37.656Z,99663.22
2022-10-01T11:08:16.880Z,99659.44
2022-10-01T11:10:55.412Z,99659.72
2022-10-01T11:13:46.302Z,99655.13
2022-10-01T11:16:40.544Z,99644.53
2022-10-01T11:19:26.493Z,99642.50
2022-10-01T11:22:18.513Z,99618.75
2022-10-01T11:25:11.716Z,99609.34
2022-10-01T11:27:51.728Z,99608.91
2022-10-01T11:30:27.862Z,99603.44
2022-10-01T11:33:04.468Z,99599.66
2022-10-01T11:35:50.628Z,99586.78
2022-10-01T11:38:48.454Z,99572.91
2022-10-01T11:41:31.786Z,99568.44
2022-10-01T11:44:07.818Z,99578.78
2022-10-01T11:46:53.670Z,99581.13
2022-10-01T11:49:47.653Z,99580.69
2022-10-01T11:52:41.120Z,99573.03
2022-10-01T11:55:33.179Z,99574.50
2022-10-01T11:58:22.155Z,99577.66
2022-10-01T12:01:02.928Z,99574.16
2022-10-01T12:03:46.498Z,99559.09
2022-10-01T12:06:23.155Z,99563.31
2022-10-01T12:09:02.368Z,99556.56
2022-10-01T12:11:38.802Z,99559.53
2022-10-01T12:14:14.461Z,99556.25
2022-10-01T12:16:50.528Z,99546.00
2022-10-01T12:19:27.641Z,99537.53
2022-10-01T12:22:02.644Z,99523.69
2022-10-01T12:24:37.366Z,99528.88
2022-10-01T12:27:31.064Z,99521.66
2022-10-01T12:30:06.064Z,99520.19
2022-10-01T12:32:57.197Z,99516.47
2022-10-01T12:35:42.600Z,99519.56
2022-10-01T12:38:26.211Z,99513.81
2022-10-01T12:41:06.430Z,99521.66
2022-10-01T12:44:07.083Z,99503.47
2022-10-01T12:46:42.282Z,99495.63
2022-10-01T12:49:22.651Z,99497.28
2022-10-01T12:52:03.617Z,99492.72
2022-10-01T12:55:00.563Z,99487.34
2022-10-01T12:57:43.089Z,99480.09
2022-10-01T13:00:18.366Z,99485.81
2022-10-01T13:03:29.925Z,99490.41
2022-10-01T13:06:17.736Z,99494.16
2022-10-01T13:09:12.728Z,99482.41
2022-10-01T13:12:03.830Z,99480.13
2022-10-01T13:14:36.009Z,99481.16
2022-10-01T13:17:15.039Z,99479.91
2022-10-01T13:19:54.225Z,99479.94
2022-10-01T13:22:37.403Z,99467.53
2022-10-01T13:25:26.813Z,99459.91
2022-10-01T13:28:02.504Z,99458.66
2022-10-01T13:30:47.917Z,99462.59
2022-10-01T13:33:27.328Z,99473.94
2022-10-01T13:36:00.340Z,99467.31
2022-10-01T13:38:33.835Z,99462.75
2022-10-01T13:41:09.825Z,99459.66
2022-10-01T13:43:44.218Z,99457.81
2022-10-01T13:46:18.329Z,99456.97
2022-10-01T13:48:51.313Z,99463.53
2022-10-01T13:51:22.007Z,99451.34
2022-10-01T13:54:01.392Z,99457.31
2022-10-01T13:56:39.819Z,99456.47
2022-10-01T13:59:35.944Z,99461.16
2022-10-01T14:02:23.482Z,99460.28
2022-10-01T14:04:54.513Z,99450.34
2022-10-01T14:07:28.198Z,99425.78
2022-10-01T14:10:03.790Z,99436.34
2022-10-01T14:12:51.734Z,99426.84
2022-10-01T14:15:38.211Z,99428.84
2022-10-01T14:18:13.817Z,99423.00
2022-10-01T14:20:55.828Z,99411.25
2022-10-01T14:23:32.441Z,99407.72
2022-10-01T14:26:10.062Z,99404.22
2022-10-01T14:28:59.391Z,99394.53
2022-10-01T14:31:40.459Z,99388.13
2022-10-01T14:34:23.271Z,99385.84
2022-10-01T14:36:56.313Z,99380.03
2022-10-01T14:39:29.325Z,99371.97
2022-10-01T14:42:01.254Z,99370.31
2022-10-01T14:44:40.075Z,99365.78
2022-10-01T14:47:22.017Z,99365.34
2022-10-01T14:49:54.254Z,99361.78
2022-10-01T14:52:26.683Z,99348.34
2022-10-01T14:55:02.344Z,99347.34
2022-10-01T14:57:36.594Z,99352.50
2022-10-01T15:00:16.500Z,99354.53
2022-10-01T15:02:52.065Z,99353.69
2022-10-01T15:05:26.155Z,99351.59
2022-10-01T15:07:56.453Z,99335.53
2022-10-01T15:10:30.507Z,99325.66
2022-10-01T15:13:00.745Z,99337.59
2022-10-01T15:15:37.373Z,99318.22
2022-10-01T15:18:08.144Z,99322.31
2022-10-01T15:20:39.202Z,99325.56
2022-10-01T15:23:09.503Z,99316.50
2022-10-01T15:25:42.369Z,99319.53
2022-10-01T15:28:17.545Z,99313.31
2022-10-01T15:30:50.632Z,99314.09
2022-10-01T15:33:29.720Z,99298.22
2022-10-01T15:36:02.194Z,99297.19
2022-10-01T15:38:35.025Z,99298.78
2022-10-01T15:41:30.641Z,99292.75
2022-10-01T15:44:01.563Z,99274.38
2022-10-01T15:46:36.502Z,99273.31
2022-10-01T15:49:27.785Z,99273.25
2022-10-01T15:52:14.525Z,99278.34
2022-10-01T15:54:50.696Z,99282.22
2022-10-01T15:57:23.496Z,99283.22
2022-10-01T15:59:57.953Z,99275.00
2022-10-01T16:02:33.940Z,99276.84
2022-10-01T16:05:09.152Z,99256.22
2022-10-01T16:07:40.460Z,99271.03
2022-10-01T16:10:28.636Z,99273.28
2022-10-01T16:12:59.012Z,99261.75
2022-10-01T16:15:31.644Z,99253.28
2022-10-01T16:18:05.779Z,99253.03
2022-10-01T16:20:39.739Z,99251.91
2022-10-01T16:23:37.875Z,99236.31
2022-10-01T16:26:35.063Z,99238.53
2022-10-01T16:29:09.192Z,99239.53
2022-10-01T16:31:47.548Z,99240.75
2022-10-01T16:34:22.062Z,99238.25
2022-10-01T16:36:52.389Z,99240.94
2022-10-01T16:39:26.101Z,99237.63
2022-10-01T16:42:12.363Z,99236.16
2022-10-01T16:44:50.095Z,99223.81
2022-10-01T16:47:20.328Z,99235.59
2022-10-01T16:49:54.452Z,99252.63
2022-10-01T16:52:24.754Z,99267.00
2022-10-01T16:54:54.853Z,99270.03
2022-10-01T16:57:25.049Z,99267.81
2022-10-01T16:59:55.155Z,99281.75
2022-10-01T17:02:25.400Z,99268.31
2022-10-01T17:04:58.203Z,99256.19
2022-10-01T17:07:29.263Z,99258.03
2022-10-01T17:10:00.116Z,99257.31
2022-10-01T17:12:30.269Z,99276.13
2022-10-01T17:15:00.404Z,99276.84
2022-10-01T17:17:31.360Z,99285.91
2022-10-01T17:20:04.279Z,99278.47
2022-10-01T17:22:34.613Z,99283.88
2022-10-01T17:25:04.813Z,99284.91
2022-10-01T17:27:35.066Z,99288.94
2022-10-01T17:30:05.390Z,99288.06
2022-10-01T17:32:37.344Z,99296.16
2022-10-01T17:35:11.736Z,99284.44
2022-10-01T17:37:43.148Z,99284.34
2022-10-01T17:40:14.522Z,99305.94
2022-10-01T17:42:44.897Z,99300.63
2022-10-01T17:45:19.780Z,99300.50
2022-10-01T17:47:51.947Z,99298.78
2022-10-01T17:50:30.417Z,99290.97
2022-10-01T17:53:01.579Z,99279.00
2022-10-01T17:55:33.940Z,99279.72
2022-10-01T17:58:04.344Z,99280.44
2022-10-01T18:00:34.570Z,99290.56
2022-10-01T18:03:06.968Z,99282.84
2022-10-01T18:05:42.360Z,99286.88
2022-10-01T18:08:13.652Z,99280.72
2022-10-01T18:10:43.850Z,99283.09
2022-10-01T18:13:14.085Z,99284.28
2022-10-01T18:15:44.230Z,99286.63
2022-10-01T18:19:45.714Z,99294.78
2022-10-01T18:21:08.996Z,99280.19
2022-10-01T18:23:39.561Z,99287.53
2022-10-01T18:26:11.187Z,99289.91
2022-10-01T18:28:41.679Z,99288.59
2022-10-01T18:31:24.397Z,99283.66
2022-10-01T18:33:57.117Z,99278.34
2022-10-01T18:36:42.540Z,99282.25
2022-10-01T18:39:20.568Z,99277.28
2022-10-01T18:41:55.441Z,99284.47
2022-10-01T18:44:26.734Z,99288.53
2022-10-01T18:47:16.843Z,99292.22
2022-10-01T18:50:14.634Z,99306.88
2022-10-01T18:53:01.203Z,99315.91
2022-10-01T18:55:52.843Z,99315.91
2022-10-01T18:58:41.946Z,99314.41
2022-10-01T19:01:23.945Z,99314.59
2022-10-01T19:04:15.079Z,99313.78
2022-10-01T19:07:05.900Z,99322.06
2022-10-01T19:09:48.155Z,99311.28
2022-10-01T19:12:33.413Z,99318.94
2022-10-01T19:15:17.170Z,99329.56
2022-10-01T19:18:14.686Z,99332.09
2022-10-01T19:20:53.651Z,99339.41
2022-10-01T19:23:39.401Z,99334.91
2022-10-01T19:26:19.528Z,99333.91
2022-10-01T19:29:04.457Z,99332.25
2022-10-01T19:31:43.244Z,99329.94
2022-10-01T19:34:20.432Z,99326.94
2022-10-01T19:36:57.500Z,99321.28
2022-10-01T19:39:30.099Z,99329.13
2022-10-01T19:42:06.630Z,99323.47
2022-10-01T19:44:44.423Z,99328.31
2022-10-01T19:47:34.634Z,99338.91
2022-10-01T19:50:15.252Z,99340.41
2022-10-01T19:52:51.544Z,99339.41
2022-10-01T19:55:25.790Z,99333.47
2022-10-01T19:57:59.552Z,99336.78
2022-10-01T20:00:29.786Z,99339.25
2022-10-01T20:03:11.982Z,99341.44
2022-10-01T20:05:47.731Z,99337.44
2022-10-01T20:08:25.130Z,99339.44
2022-10-01T20:10:57.984Z,99338.94
2022-10-01T20:14:00.402Z,99334.63
2022-10-01T20:16:40.955Z,99345.56
2022-10-01T20:19:20.332Z,99350.38
2022-10-01T20:22:03.291Z,99339.44
2022-10-01T20:24:44.568Z,99340.94
2022-10-01T20:27:25.207Z,99338.75
2022-10-01T20:30:07.348Z,99343.59
2022-10-01T20:32:45.379Z,99338.59
2022-10-01T20:35:27.537Z,99353.25
2022-10-01T20:38:07.041Z,99355.72
2022-10-01T20:40:43.285Z,99344.09
2022-10-01T20:43:19.307Z,99345.25
2022-10-01T20:45:55.443Z,99358.38
2022-10-01T20:48:30.453Z,99358.19
2022-10-01T20:51:06.821Z,99341.59
2022-10-01T20:53:42.029Z,99355.72
2022-10-01T20:56:19.359Z,99363.69
2022-10-01T20:58:53.788Z,99375.78
2022-10-01T21:01:30.371Z,99384.44
2022-10-01T21:04:06.486Z,99385.94
2022-10-01T21:06:44.571Z,99387.59
2022-10-01T21:09:24.626Z,99377.97
2022-10-01T21:12:00.143Z,99375.97
2022-10-01T21:14:36.889Z,99375.13
2022-10-01T21:17:27.290Z,99361.53
2022-10-01T21:20:11.670Z,99383.44
2022-10-01T21:22:57.018Z,99388.75
2022-10-01T21:25:38.725Z,99396.22
2022-10-01T21:28:25.673Z,99387.44
2022-10-01T21:31:07.498Z,99395.72
2022-10-01T21:33:47.812Z,99405.03
2022-10-01T21:36:23.250Z,99402.38
2022-10-01T21:38:58.342Z,99399.06
2022-10-01T21:41:48.279Z,99401.38
2022-10-01T21:44:41.743Z,99409.97
2022-10-01T21:47:21.087Z,99414.31
2022-10-01T21:50:05.260Z,99414.47
2022-10-01T21:52:47.435Z,99418.59
2022-10-01T21:55:42.629Z,99425.25
2022-10-01T21:58:28.220Z,99422.44
2022-10-01T22:01:11.102Z,99421.25
2022-10-01T22:03:50.947Z,99424.88
2022-10-01T22:06:32.070Z,99421.06
2022-10-01T22:09:14.632Z,99424.88
2022-10-01T22:11:56.343Z,99417.91
2022-10-01T22:14:27.051Z,99421.88
2022-10-01T22:17:00.132Z,99422.53
2022-10-01T22:19:32.583Z,99425.72
2022-10-01T22:22:11.374Z,99433.47
2022-10-01T22:24:46.686Z,99431.97
2022-10-01T22:27:23.051Z,99440.44
2022-10-01T22:29:58.200Z,99443.09
2022-10-01T22:32:36.021Z,99453.44
2022-10-01T22:35:10.880Z,99461.22
2022-10-01T22:37:52.374Z,99463.06
2022-10-01T22:40:30.374Z,99463.38
2022-10-01T22:43:08.217Z,99452.34
2022-10-01T22:45:53.836Z,99457.97
2022-10-01T22:48:44.026Z,99456.66
2022-10-01T22:51:31.144Z,99447.25
2022-10-01T22:54:25.780Z,99454.00
2022-10-01T22:57:07.529Z,99440.72
2022-10-01T22:59:49.278Z,99448.34
2022-10-01T23:02:27.819Z,99453.50
2022-10-01T23:05:11.866Z,99468.09
2022-10-01T23:07:55.437Z,99459.09
2022-10-01T23:10:39.325Z,99456.53
2022-10-01T23:13:22.191Z,99467.59
2022-10-01T23:16:01.159Z,99468.53
2022-10-01T23:18:40.981Z,99470.00
2022-10-01T23:21:25.768Z,99467.03
2022-10-01T23:24:05.212Z,99458.03
2022-10-01T23:26:49.567Z,99445.09
2022-10-01T23:29:42.824Z,99465.00
2022-10-01T23:32:27.037Z,99460.69
2022-10-01T23:35:02.725Z,99452.13
2022-10-01T23:38:04.356Z,99449.31
2022-10-01T23:40:37.921Z,99465.53
2022-10-01T23:43:14.482Z,99480.38
2022-10-01T23:45:49.350Z,99481.31
2022-10-01T23:48:23.812Z,99469.88
2022-10-01T23:51:01.210Z,99479.94
2022-10-01T23:53:37.368Z,99486.09
2022-10-01T23:56:24.387Z,99479.28
2022-10-01T23:59:04.883Z,99467.59
